sensor_id;sensor_type;location;lat;lon;timestamp;pressure;altitude;pressure_sealevel;temperature;humidity
16613;BME280;8419;52.358;9.752;2022-07-29T00:00:31;101194.00;;;28.16;24.09
16613;BME280;8419;52.358;9.752;2022-07-29T00:03:16;101194.00;;;28.18;24.10
16613;BME280;8419;52.358;9.752;2022-07-29T00:06:01;101190.00;;;28.19;24.10
16613;BME280;8419;52.358;9.752;2022-07-29T00:08:47;101185.00;;;27.98;24.31
16613;BME280;8419;52.358;9.752;2022-07-29T00:11:32;101184.00;;;27.78;24.63
16613;BME280;8419;52.358;9.752;2022-07-29T00:14:18;101179.00;;;27.77;24.68
16613;BME280;8419;52.358;9.752;2022-07-29T00:17:04;101178.00;;;28.13;24.28
16613;BME280;8419;52.358;9.752;2022-07-29T00:19:49;101181.00;;;28.15;24.22
16613;BME280;8419;52.358;9.752;2022-07-29T00:22:37;101172.00;;;27.77;24.68
16613;BME280;8419;52.358;9.752;2022-07-29T00:25:23;101172.00;;;27.73;24.78
16613;BME280;8419;52.358;9.752;2022-07-29T00:28:09;101165.00;;;27.73;24.77
16613;BME280;8419;52.358;9.752;2022-07-29T00:30:54;101161.00;;;27.70;24.82
16613;BME280;8419;52.358;9.752;2022-07-29T00:33:39;101165.00;;;28.09;24.40
16613;BME280;8419;52.358;9.752;2022-07-29T00:36:24;101167.00;;;27.81;24.67
16613;BME280;8419;52.358;9.752;2022-07-29T00:39:10;101166.00;;;27.70;24.86
16613;BME280;8419;52.358;9.752;2022-07-29T00:41:55;101155.00;;;27.68;24.89
16613;BME280;8419;52.358;9.752;2022-07-29T00:44:41;101157.00;;;27.65;24.96
16613;BME280;8419;52.358;9.752;2022-07-29T00:47:27;101157.00;;;27.65;24.99
16613;BME280;8419;52.358;9.752;2022-07-29T00:50:13;101154.00;;;27.63;25.01
16613;BME280;8419;52.358;9.752;2022-07-29T00:52:59;101151.00;;;27.66;24.99
16613;BME280;8419;52.358;9.752;2022-07-29T00:55:44;101148.00;;;27.67;24.98
16613;BME280;8419;52.358;9.752;2022-07-29T00:58:30;101148.00;;;27.69;25.00
16613;BME280;8419;52.358;9.752;2022-07-29T01:01:16;101147.00;;;27.68;25.03
16613;BME280;8419;52.358;9.752;2022-07-29T01:04:02;101142.00;;;27.66;25.07
16613;BME280;8419;52.358;9.752;2022-07-29T01:06:47;101143.00;;;27.66;25.09
16613;BME280;8419;52.358;9.752;2022-07-29T01:09:34;101131.00;;;27.65;25.13
16613;BME280;8419;52.358;9.752;2022-07-29T01:12:24;101136.00;;;27.65;25.16
16613;BME280;8419;52.358;9.752;2022-07-29T01:15:11;101123.00;;;27.62;25.20
16613;BME280;8419;52.358;9.752;2022-07-29T01:18:03;101120.00;;;27.59;25.21
16613;BME280;8419;52.358;9.752;2022-07-29T01:21:23;101121.00;;;27.53;25.31
16613;BME280;8419;52.358;9.752;2022-07-29T01:24:27;101118.00;;;27.48;25.39
16613;BME280;8419;52.358;9.752;2022-07-29T01:27:32;101118.00;;;27.42;25.46
16613;BME280;8419;52.358;9.752;2022-07-29T01:30:25;101113.00;;;27.42;25.46
16613;BME280;8419;52.358;9.752;2022-07-29T01:33:15;101112.00;;;27.38;25.51
16613;BME280;8419;52.358;9.752;2022-07-29T01:36:25;101105.00;;;27.36;25.55
16613;BME280;8419;52.358;9.752;2022-07-29T01:39:16;101106.00;;;27.31;25.57
16613;BME280;8419;52.358;9.752;2022-07-29T01:42:10;101102.00;;;27.28;25.65
16613;BME280;8419;52.358;9.752;2022-07-29T01:45:00;101104.00;;;27.25;25.70
16613;BME280;8419;52.358;9.752;2022-07-29T01:47:54;101091.00;;;27.20;25.74
16613;BME280;8419;52.358;9.752;2022-07-29T01:50:47;101097.00;;;27.22;25.74
16613;BME280;8419;52.358;9.752;2022-07-29T01:53:36;101095.00;;;27.11;25.84
16613;BME280;8419;52.358;9.752;2022-07-29T01:56:23;101095.00;;;27.07;25.88
16613;BME280;8419;52.358;9.752;2022-07-29T01:59:10;101098.00;;;27.00;25.95
16613;BME280;8419;52.358;9.752;2022-07-29T02:01:58;101097.00;;;26.97;25.99
16613;BME280;8419;52.358;9.752;2022-07-29T02:04:45;101096.00;;;26.92;26.06
16613;BME280;8419;52.358;9.752;2022-07-29T02:07:33;101103.00;;;26.85;26.14
16613;BME280;8419;52.358;9.752;2022-07-29T02:10:22;101100.00;;;26.80;26.18
16613;BME280;8419;52.358;9.752;2022-07-29T02:13:10;101092.00;;;26.72;26.28
16613;BME280;8419;52.358;9.752;2022-07-29T02:15:57;101080.00;;;26.67;26.36
16613;BME280;8419;52.358;9.752;2022-07-29T02:18:45;101085.00;;;26.63;26.40
16613;BME280;8419;52.358;9.752;2022-07-29T02:21:34;101074.00;;;26.60;26.46
16613;BME280;8419;52.358;9.752;2022-07-29T02:24:20;101079.00;;;26.57;26.49
16613;BME280;8419;52.358;9.752;2022-07-29T02:27:07;101074.00;;;26.53;26.53
16613;BME280;8419;52.358;9.752;2022-07-29T02:29:54;101073.00;;;26.46;26.60
16613;BME280;8419;52.358;9.752;2022-07-29T02:32:41;101079.00;;;26.42;26.69
16613;BME280;8419;52.358;9.752;2022-07-29T02:35:27;101074.00;;;26.41;26.71
16613;BME280;8419;52.358;9.752;2022-07-29T02:38:15;101081.00;;;26.38;26.74
16613;BME280;8419;52.358;9.752;2022-07-29T02:41:23;101081.00;;;26.31;26.86
16613;BME280;8419;52.358;9.752;2022-07-29T02:44:11;101071.00;;;26.29;26.86
16613;BME280;8419;52.358;9.752;2022-07-29T02:47:02;101079.00;;;26.29;26.90
16613;BME280;8419;52.358;9.752;2022-07-29T02:49:53;101072.00;;;26.29;26.92
16613;BME280;8419;52.358;9.752;2022-07-29T02:52:43;101063.00;;;26.34;26.90
16613;BME280;8419;52.358;9.752;2022-07-29T02:55:33;101070.00;;;26.34;26.92
16613;BME280;8419;52.358;9.752;2022-07-29T02:58:23;101073.00;;;26.38;26.90
16613;BME280;8419;52.358;9.752;2022-07-29T03:01:16;101069.00;;;26.44;26.87
16613;BME280;8419;52.358;9.752;2022-07-29T03:04:05;101065.00;;;26.45;26.87
16613;BME280;8419;52.358;9.752;2022-07-29T03:06:52;101062.00;;;26.43;26.90
16613;BME280;8419;52.358;9.752;2022-07-29T03:09:39;101051.00;;;26.44;26.91
16613;BME280;8419;52.358;9.752;2022-07-29T03:12:27;101051.00;;;26.46;26.89
16613;BME280;8419;52.358;9.752;2022-07-29T03:15:13;101050.00;;;26.49;26.89
16613;BME280;8419;52.358;9.752;2022-07-29T03:18:00;101054.00;;;26.48;26.92
16613;BME280;8419;52.358;9.752;2022-07-29T03:20:45;101055.00;;;26.48;26.92
16613;BME280;8419;52.358;9.752;2022-07-29T03:23:31;101064.00;;;26.50;26.91
16613;BME280;8419;52.358;9.752;2022-07-29T03:26:16;101057.00;;;26.51;26.93
16613;BME280;8419;52.358;9.752;2022-07-29T03:29:02;101049.00;;;26.51;26.95
16613;BME280;8419;52.358;9.752;2022-07-29T03:31:47;101056.00;;;26.49;27.00
16613;BME280;8419;52.358;9.752;2022-07-29T03:34:32;101056.00;;;26.49;27.00
16613;BME280;8419;52.358;9.752;2022-07-29T03:37:18;101049.00;;;26.48;27.01
16613;BME280;8419;52.358;9.752;2022-07-29T03:40:07;101058.00;;;26.53;26.99
16613;BME280;8419;52.358;9.752;2022-07-29T03:42:54;101055.00;;;26.50;27.05
16613;BME280;8419;52.358;9.752;2022-07-29T03:45:44;101055.00;;;26.52;27.05
16613;BME280;8419;52.358;9.752;2022-07-29T03:48:33;101048.00;;;26.49;27.10
16613;BME280;8419;52.358;9.752;2022-07-29T03:51:21;101053.00;;;26.50;27.11
16613;BME280;8419;52.358;9.752;2022-07-29T03:54:07;101055.00;;;26.48;27.15
16613;BME280;8419;52.358;9.752;2022-07-29T03:56:54;101054.00;;;26.46;27.18
16613;BME280;8419;52.358;9.752;2022-07-29T03:59:43;101054.00;;;26.43;27.25
16613;BME280;8419;52.358;9.752;2022-07-29T04:02:29;101057.00;;;26.43;27.26
16613;BME280;8419;52.358;9.752;2022-07-29T04:05:17;101051.00;;;26.46;27.24
16613;BME280;8419;52.358;9.752;2022-07-29T04:08:02;101051.00;;;26.44;27.29
16613;BME280;8419;52.358;9.752;2022-07-29T04:10:48;101058.00;;;26.44;27.34
16613;BME280;8419;52.358;9.752;2022-07-29T04:13:35;101057.00;;;26.46;27.33
16613;BME280;8419;52.358;9.752;2022-07-29T04:16:20;101052.00;;;26.45;27.38
16613;BME280;8419;52.358;9.752;2022-07-29T04:19:05;101049.00;;;26.51;27.32
16613;BME280;8419;52.358;9.752;2022-07-29T04:21:51;101058.00;;;26.53;27.30
16613;BME280;8419;52.358;9.752;2022-07-29T04:24:36;101064.00;;;26.55;27.32
16613;BME280;8419;52.358;9.752;2022-07-29T04:27:21;101066.00;;;26.57;27.34
16613;BME280;8419;52.358;9.752;2022-07-29T04:30:08;101064.00;;;26.55;27.39
16613;BME280;8419;52.358;9.752;2022-07-29T04:32:54;101060.00;;;26.54;27.44
16613;BME280;8419;52.358;9.752;2022-07-29T04:35:39;101054.00;;;26.51;27.50
16613;BME280;8419;52.358;9.752;2022-07-29T04:38:25;101060.00;;;26.50;27.54
16613;BME280;8419;52.358;9.752;2022-07-29T04:41:10;101065.00;;;26.53;27.51
16613;BME280;8419;52.358;9.752;2022-07-29T04:43:55;101069.00;;;26.52;27.54
16613;BME280;8419;52.358;9.752;2022-07-29T04:46:41;101061.00;;;26.52;27.59
16613;BME280;8419;52.358;9.752;2022-07-29T04:49:26;101080.00;;;26.57;27.55
16613;BME280;8419;52.358;9.752;2022-07-29T04:52:11;101068.00;;;26.69;27.44
16613;BME280;8419;52.358;9.752;2022-07-29T04:54:56;101064.00;;;26.67;27.50
16613;BME280;8419;52.358;9.752;2022-07-29T04:57:42;101068.00;;;26.66;27.57
16613;BME280;8419;52.358;9.752;2022-07-29T05:00:27;101063.00;;;26.69;27.55
16613;BME280;8419;52.358;9.752;2022-07-29T05:03:13;101068.00;;;26.72;27.55
16613;BME280;8419;52.358;9.752;2022-07-29T05:05:58;101068.00;;;26.77;27.53
16613;BME280;8419;52.358;9.752;2022-07-29T05:08:44;101068.00;;;26.90;27.42
16613;BME280;8419;52.358;9.752;2022-07-29T05:11:29;101079.00;;;26.87;27.49
16613;BME280;8419;52.358;9.752;2022-07-29T05:14:14;101066.00;;;26.96;27.47
16613;BME280;8419;52.358;9.752;2022-07-29T05:16:59;101068.00;;;27.02;27.43
16613;BME280;8419;52.358;9.752;2022-07-29T05:19:45;101075.00;;;27.09;27.38
16613;BME280;8419;52.358;9.752;2022-07-29T05:22:30;101072.00;;;27.14;27.37
16613;BME280;8419;52.358;9.752;2022-07-29T05:25:16;101082.00;;;27.18;27.34
16613;BME280;8419;52.358;9.752;2022-07-29T05:28:01;101072.00;;;27.33;27.18
16613;BME280;8419;52.358;9.752;2022-07-29T05:30:47;101078.00;;;27.40;27.15
16613;BME280;8419;52.358;9.752;2022-07-29T05:33:32;101074.00;;;27.41;27.17
16613;BME280;8419;52.358;9.752;2022-07-29T05:36:18;101064.00;;;27.45;27.18
16613;BME280;8419;52.358;9.752;2022-07-29T05:39:03;101066.00;;;27.54;27.15
16613;BME280;8419;52.358;9.752;2022-07-29T05:41:49;101064.00;;;27.61;27.10
16613;BME280;8419;52.358;9.752;2022-07-29T05:44:37;101068.00;;;27.70;27.06
16613;BME280;8419;52.358;9.752;2022-07-29T05:47:23;101071.00;;;27.78;27.06
16613;BME280;8419;52.358;9.752;2022-07-29T05:50:09;101076.00;;;27.91;26.97
16613;BME280;8419;52.358;9.752;2022-07-29T05:52:54;101072.00;;;27.97;26.90
16613;BME280;8419;52.358;9.752;2022-07-29T05:55:39;101078.00;;;28.05;26.88
16613;BME280;8419;52.358;9.752;2022-07-29T05:58:25;101076.00;;;28.04;26.91
16613;BME280;8419;52.358;9.752;2022-07-29T06:01:10;101070.00;;;28.13;26.89
16613;BME280;8419;52.358;9.752;2022-07-29T06:03:55;101066.00;;;28.01;27.04
16613;BME280;8419;52.358;9.752;2022-07-29T06:06:41;101066.00;;;27.95;27.11
16613;BME280;8419;52.358;9.752;2022-07-29T06:09:26;101065.00;;;27.94;27.16
16613;BME280;8419;52.358;9.752;2022-07-29T06:12:11;101069.00;;;27.92;27.19
16613;BME280;8419;52.358;9.752;2022-07-29T06:14:56;101063.00;;;27.93;27.21
16613;BME280;8419;52.358;9.752;2022-07-29T06:17:43;101065.00;;;27.96;27.22
16613;BME280;8419;52.358;9.752;2022-07-29T06:20:29;101066.00;;;28.06;27.14
16613;BME280;8419;52.358;9.752;2022-07-29T06:23:15;101061.00;;;28.18;27.04
16613;BME280;8419;52.358;9.752;2022-07-29T06:26:00;101054.00;;;28.31;26.93
16613;BME280;8419;52.358;9.752;2022-07-29T06:28:46;101062.00;;;28.48;26.81
16613;BME280;8419;52.358;9.752;2022-07-29T06:31:31;101060.00;;;28.63;26.72
16613;BME280;8419;52.358;9.752;2022-07-29T06:34:16;101051.00;;;28.82;26.57
16613;BME280;8419;52.358;9.752;2022-07-29T06:37:06;101046.00;;;28.99;26.40
16613;BME280;8419;52.358;9.752;2022-07-29T06:39:51;101051.00;;;29.13;26.33
16613;BME280;8419;52.358;9.752;2022-07-29T06:43:45;101055.00;;;29.20;26.24
16613;BME280;8419;52.358;9.752;2022-07-29T06:46:31;101051.00;;;29.32;26.14
16613;BME280;8419;52.358;9.752;2022-07-29T06:49:17;101049.00;;;29.44;26.04
16613;BME280;8419;52.358;9.752;2022-07-29T06:52:02;101047.00;;;29.53;25.98
16613;BME280;8419;52.358;9.752;2022-07-29T06:54:47;101046.00;;;29.66;25.86
16613;BME280;8419;52.358;9.752;2022-07-29T06:57:33;101048.00;;;29.77;25.80
16613;BME280;8419;52.358;9.752;2022-07-29T07:00:19;101046.00;;;29.85;25.71
16613;BME280;8419;52.358;9.752;2022-07-29T07:03:04;101054.00;;;29.87;25.73
16613;BME280;8419;52.358;9.752;2022-07-29T07:05:51;101059.00;;;29.96;25.65
16613;BME280;8419;52.358;9.752;2022-07-29T07:08:36;101060.00;;;29.95;25.66
16613;BME280;8419;52.358;9.752;2022-07-29T07:11:22;101062.00;;;30.05;25.55
16613;BME280;8419;52.358;9.752;2022-07-29T07:14:07;101060.00;;;30.10;25.54
16613;BME280;8419;52.358;9.752;2022-07-29T07:16:52;101064.00;;;30.19;25.40
16613;BME280;8419;52.358;9.752;2022-07-29T07:19:37;101062.00;;;30.31;25.28
16613;BME280;8419;52.358;9.752;2022-07-29T07:22:23;101057.00;;;30.44;25.17
16613;BME280;8419;52.358;9.752;2022-07-29T07:25:08;101062.00;;;30.57;25.05
16613;BME280;8419;52.358;9.752;2022-07-29T07:27:56;101062.00;;;30.75;24.91
16613;BME280;8419;52.358;9.752;2022-07-29T07:30:41;101050.00;;;30.84;24.85
16613;BME280;8419;52.358;9.752;2022-07-29T07:33:27;101062.00;;;30.97;24.70
16613;BME280;8419;52.358;9.752;2022-07-29T07:36:13;101059.00;;;31.16;24.46
16613;BME280;8419;52.358;9.752;2022-07-29T07:38:58;101062.00;;;31.13;24.47
16613;BME280;8419;52.358;9.752;2022-07-29T07:41:43;101057.00;;;31.26;24.37
16613;BME280;8419;52.358;9.752;2022-07-29T07:44:31;101056.00;;;31.25;24.37
16613;BME280;8419;52.358;9.752;2022-07-29T07:47:16;101048.00;;;31.21;24.39
16613;BME280;8419;52.358;9.752;2022-07-29T07:50:07;101053.00;;;31.19;24.41
16613;BME280;8419;52.358;9.752;2022-07-29T07:52:55;101046.00;;;31.05;24.57
16613;BME280;8419;52.358;9.752;2022-07-29T07:55:43;101056.00;;;31.03;24.59
16613;BME280;8419;52.358;9.752;2022-07-29T07:58:28;101064.00;;;31.04;24.56
16613;BME280;8419;52.358;9.752;2022-07-29T08:01:14;101072.00;;;31.06;24.53
16613;BME280;8419;52.358;9.752;2022-07-29T08:04:02;101061.00;;;31.17;24.40
16613;BME280;8419;52.358;9.752;2022-07-29T08:06:47;101072.00;;;31.22;24.32
16613;BME280;8419;52.358;9.752;2022-07-29T08:09:34;101063.00;;;31.15;24.34
16613;BME280;8419;52.358;9.752;2022-07-29T08:12:20;101065.00;;;31.20;24.31
16613;BME280;8419;52.358;9.752;2022-07-29T08:15:08;101066.00;;;31.15;24.31
16613;BME280;8419;52.358;9.752;2022-07-29T08:17:54;101061.00;;;31.17;24.26
16613;BME280;8419;52.358;9.752;2022-07-29T08:20:39;101064.00;;;31.14;24.31
16613;BME280;8419;52.358;9.752;2022-07-29T08:23:25;101063.00;;;31.03;24.42
16613;BME280;8419;52.358;9.752;2022-07-29T08:26:12;101062.00;;;31.03;24.49
16613;BME280;8419;52.358;9.752;2022-07-29T08:28:58;101057.00;;;31.00;24.56
16613;BME280;8419;52.358;9.752;2022-07-29T08:31:43;101054.00;;;31.05;24.49
16613;BME280;8419;52.358;9.752;2022-07-29T08:34:30;101061.00;;;30.97;24.61
16613;BME280;8419;52.358;9.752;2022-07-29T08:37:16;101053.00;;;30.96;24.64
16613;BME280;8419;52.358;9.752;2022-07-29T08:40:01;101060.00;;;31.05;24.57
16613;BME280;8419;52.358;9.752;2022-07-29T08:42:47;101053.00;;;31.13;24.52
16613;BME280;8419;52.358;9.752;2022-07-29T08:45:41;101054.00;;;31.21;24.46
16613;BME280;8419;52.358;9.752;2022-07-29T08:48:27;101053.00;;;31.37;24.32
16613;BME280;8419;52.358;9.752;2022-07-29T08:51:15;101059.00;;;31.44;24.23
16613;BME280;8419;52.358;9.752;2022-07-29T08:54:01;101061.00;;;31.45;24.28
16613;BME280;8419;52.358;9.752;2022-07-29T08:56:50;101061.00;;;31.46;24.25
16613;BME280;8419;52.358;9.752;2022-07-29T08:59:38;101067.00;;;31.50;24.26
16613;BME280;8419;52.358;9.752;2022-07-29T09:02:28;101069.00;;;31.66;24.13
16613;BME280;8419;52.358;9.752;2022-07-29T09:05:14;101077.00;;;31.84;23.96
16613;BME280;8419;52.358;9.752;2022-07-29T09:08:01;101077.00;;;32.02;23.79
16613;BME280;8419;52.358;9.752;2022-07-29T09:10:47;101079.00;;;32.17;23.65
16613;BME280;8419;52.358;9.752;2022-07-29T09:13:33;101065.00;;;32.29;23.55
16613;BME280;8419;52.358;9.752;2022-07-29T09:16:18;101065.00;;;32.53;23.42
16613;BME280;8419;52.358;9.752;2022-07-29T09:19:19;101067.00;;;32.67;23.31
16613;BME280;8419;52.358;9.752;2022-07-29T09:22:06;101046.00;;;32.96;23.08
16613;BME280;8419;52.358;9.752;2022-07-29T09:24:52;101056.00;;;33.10;22.98
16613;BME280;8419;52.358;9.752;2022-07-29T09:27:39;101049.00;;;33.20;22.86
16613;BME280;8419;52.358;9.752;2022-07-29T09:30:25;101048.00;;;33.48;22.58
16613;BME280;8419;52.358;9.752;2022-07-29T09:33:10;101042.00;;;33.43;22.66
16613;BME280;8419;52.358;9.752;2022-07-29T09:36:00;101034.00;;;33.55;22.56
16613;BME280;8419;52.358;9.752;2022-07-29T09:38:57;101035.00;;;33.63;22.53
16613;BME280;8419;52.358;9.752;2022-07-29T09:41:48;101032.00;;;33.65;22.56
16613;BME280;8419;52.358;9.752;2022-07-29T09:44:45;101023.00;;;33.59;22.64
16613;BME280;8419;52.358;9.752;2022-07-29T09:47:42;101025.00;;;33.82;22.46
16613;BME280;8419;52.358;9.752;2022-07-29T09:50:37;101032.00;;;33.84;22.52
16613;BME280;8419;52.358;9.752;2022-07-29T09:53:33;101027.00;;;33.96;22.41
16613;BME280;8419;52.358;9.752;2022-07-29T09:56:19;101030.00;;;33.95;22.45
16613;BME280;8419;52.358;9.752;2022-07-29T09:59:06;101028.00;;;33.94;22.43
16613;BME280;8419;52.358;9.752;2022-07-29T10:01:52;101026.00;;;33.99;22.38
16613;BME280;8419;52.358;9.752;2022-07-29T10:04:39;101025.00;;;33.97;22.40
16613;BME280;8419;52.358;9.752;2022-07-29T10:07:25;101029.00;;;34.10;22.30
16613;BME280;8419;52.358;9.752;2022-07-29T10:10:11;101030.00;;;34.20;22.23
16613;BME280;8419;52.358;9.752;2022-07-29T10:13:06;101030.00;;;34.23;22.19
16613;BME280;8419;52.358;9.752;2022-07-29T10:15:52;101033.00;;;34.38;22.15
16613;BME280;8419;52.358;9.752;2022-07-29T10:18:39;101031.00;;;34.47;22.06
16613;BME280;8419;52.358;9.752;2022-07-29T10:21:25;101028.00;;;34.65;21.87
16613;BME280;8419;52.358;9.752;2022-07-29T10:24:11;101035.00;;;34.85;21.64
16613;BME280;8419;52.358;9.752;2022-07-29T10:26:58;101030.00;;;34.94;21.59
16613;BME280;8419;52.358;9.752;2022-07-29T10:29:43;101033.00;;;34.93;21.60
16613;BME280;8419;52.358;9.752;2022-07-29T10:32:45;101025.00;;;34.90;21.64
16613;BME280;8419;52.358;9.752;2022-07-29T10:35:44;101028.00;;;34.92;21.62
16613;BME280;8419;52.358;9.752;2022-07-29T10:38:47;101022.00;;;34.88;21.66
16613;BME280;8419;52.358;9.752;2022-07-29T10:41:57;101020.00;;;34.89;21.69
16613;BME280;8419;52.358;9.752;2022-07-29T10:44:45;101017.00;;;34.86;21.69
16613;BME280;8419;52.358;9.752;2022-07-29T10:47:31;101015.00;;;34.75;21.80
16613;BME280;8419;52.358;9.752;2022-07-29T10:50:17;101015.00;;;34.65;21.89
16613;BME280;8419;52.358;9.752;2022-07-29T10:53:02;101017.00;;;34.75;21.76
16613;BME280;8419;52.358;9.752;2022-07-29T10:55:48;101020.00;;;34.77;21.75
16613;BME280;8419;52.358;9.752;2022-07-29T10:58:35;101016.00;;;34.91;21.65
16613;BME280;8419;52.358;9.752;2022-07-29T11:01:30;101016.00;;;34.99;21.60
16613;BME280;8419;52.358;9.752;2022-07-29T11:04:15;101016.00;;;34.97;21.63
16613;BME280;8419;52.358;9.752;2022-07-29T11:07:10;101008.00;;;34.83;21.75
16613;BME280;8419;52.358;9.752;2022-07-29T11:10:22;101009.00;;;34.70;21.91
16613;BME280;8419;52.358;9.752;2022-07-29T11:13:08;101003.00;;;34.63;21.95
16613;BME280;8419;52.358;9.752;2022-07-29T11:15:54;101008.00;;;34.39;22.19
16613;BME280;8419;52.358;9.752;2022-07-29T11:22:02;101010.00;;;34.07;22.54
16613;BME280;8419;52.358;9.752;2022-07-29T11:25:13;101014.00;;;33.94;22.67
16613;BME280;8419;52.358;9.752;2022-07-29T11:28:13;101007.00;;;33.81;22.85
16613;BME280;8419;52.358;9.752;2022-07-29T11:31:01;101001.00;;;33.67;23.01
16613;BME280;8419;52.358;9.752;2022-07-29T11:33:47;101003.00;;;33.54;23.13
16613;BME280;8419;52.358;9.752;2022-07-29T11:36:33;101003.00;;;33.41;23.29
16613;BME280;8419;52.358;9.752;2022-07-29T11:39:28;101009.00;;;33.41;23.31
16613;BME280;8419;52.358;9.752;2022-07-29T11:42:39;101004.00;;;33.51;23.26
16613;BME280;8419;52.358;9.752;2022-07-29T11:45:45;101000.00;;;33.52;23.24
16613;BME280;8419;52.358;9.752;2022-07-29T11:48:31;100997.00;;;33.62;23.19
16613;BME280;8419;52.358;9.752;2022-07-29T11:51:17;100999.00;;;33.73;23.09
16613;BME280;8419;52.358;9.752;2022-07-29T11:54:04;101003.00;;;33.74;23.15
16613;BME280;8419;52.358;9.752;2022-07-29T11:56:50;100993.00;;;33.87;23.08
16613;BME280;8419;52.358;9.752;2022-07-29T11:59:40;100994.00;;;33.98;23.00
16613;BME280;8419;52.358;9.752;2022-07-29T12:02:38;100985.00;;;33.99;23.08
16613;BME280;8419;52.358;9.752;2022-07-29T12:05:39;100993.00;;;34.19;22.94
16613;BME280;8419;52.358;9.752;2022-07-29T12:08:25;100995.00;;;34.35;22.83
16613;BME280;8419;52.358;9.752;2022-07-29T12:11:17;100995.00;;;34.49;22.71
16613;BME280;8419;52.358;9.752;2022-07-29T12:14:03;100994.00;;;34.64;22.61
16613;BME280;8419;52.358;9.752;2022-07-29T12:16:48;100984.00;;;34.76;22.48
16613;BME280;8419;52.358;9.752;2022-07-29T12:19:43;100987.00;;;34.96;22.34
16613;BME280;8419;52.358;9.752;2022-07-29T12:22:29;100983.00;;;35.16;22.19
16613;BME280;8419;52.358;9.752;2022-07-29T12:25:16;100981.00;;;35.24;22.13
16613;BME280;8419;52.358;9.752;2022-07-29T12:28:06;100982.00;;;35.48;21.98
16613;BME280;8419;52.358;9.752;2022-07-29T12:30:55;100972.00;;;35.84;21.69
16613;BME280;8419;52.358;9.752;2022-07-29T12:33:41;100973.00;;;36.21;21.34
16613;BME280;8419;52.358;9.752;2022-07-29T12:36:28;100962.00;;;36.39;21.22
16613;BME280;8419;52.358;9.752;2022-07-29T12:39:16;100969.00;;;36.47;21.20
16613;BME280;8419;52.358;9.752;2022-07-29T12:42:12;100965.00;;;36.53;21.18
16613;BME280;8419;52.358;9.752;2022-07-29T12:44:58;100970.00;;;36.66;21.06
16613;BME280;8419;52.358;9.752;2022-07-29T12:47:53;100971.00;;;36.84;20.89
16613;BME280;8419;52.358;9.752;2022-07-29T12:50:54;100959.00;;;37.16;20.63
16613;BME280;8419;52.358;9.752;2022-07-29T12:53:41;100961.00;;;37.19;20.61
16613;BME280;8419;52.358;9.752;2022-07-29T12:56:46;100952.00;;;37.21;20.48
16613;BME280;8419;52.358;9.752;2022-07-29T12:59:42;100961.00;;;37.23;20.45
16613;BME280;8419;52.358;9.752;2022-07-29T13:02:28;100957.00;;;37.21;20.44
16613;BME280;8419;52.358;9.752;2022-07-29T13:05:14;100961.00;;;37.25;20.46
16613;BME280;8419;52.358;9.752;2022-07-29T13:08:12;100957.00;;;37.28;20.41
16613;BME280;8419;52.358;9.752;2022-07-29T13:10:58;100953.00;;;37.34;20.35
16613;BME280;8419;52.358;9.752;2022-07-29T13:13:50;100953.00;;;37.29;20.35
16613;BME280;8419;52.358;9.752;2022-07-29T13:16:40;100947.00;;;37.27;20.26
16613;BME280;8419;52.358;9.752;2022-07-29T13:19:45;100941.00;;;37.13;20.18
16613;BME280;8419;52.358;9.752;2022-07-29T13:22:31;100940.00;;;36.99;20.23
16613;BME280;8419;52.358;9.752;2022-07-29T13:25:25;100945.00;;;36.96;20.10
16613;BME280;8419;52.358;9.752;2022-07-29T13:28:11;100936.00;;;36.80;20.04
16613;BME280;8419;52.358;9.752;2022-07-29T13:30:56;100944.00;;;36.73;19.99
16613;BME280;8419;52.358;9.752;2022-07-29T13:33:41;100925.00;;;36.69;19.90
16613;BME280;8419;52.358;9.752;2022-07-29T13:36:27;100935.00;;;36.68;19.83
16613;BME280;8419;52.358;9.752;2022-07-29T13:39:12;100928.00;;;36.62;19.78
16613;BME280;8419;52.358;9.752;2022-07-29T13:41:58;100921.00;;;36.59;19.78
16613;BME280;8419;52.358;9.752;2022-07-29T13:44:43;100908.00;;;36.63;19.70
16613;BME280;8419;52.358;9.752;2022-07-29T13:47:31;100915.00;;;36.69;19.67
16613;BME280;8419;52.358;9.752;2022-07-29T13:50:16;100908.00;;;37.10;19.37
16613;BME280;8419;52.358;9.752;2022-07-29T13:53:01;100920.00;;;38.94;17.97
16613;BME280;8419;52.358;9.752;2022-07-29T13:55:47;100912.00;;;41.44;16.18
16613;BME280;8419;52.358;9.752;2022-07-29T13:58:32;100914.00;;;43.68;14.66
16613;BME280;8419;52.358;9.752;2022-07-29T14:01:18;100910.00;;;43.95;14.52
16613;BME280;8419;52.358;9.752;2022-07-29T14:04:04;100901.00;;;43.91;14.64
16613;BME280;8419;52.358;9.752;2022-07-29T14:06:49;100911.00;;;44.45;14.19
16613;BME280;8419;52.358;9.752;2022-07-29T14:09:35;100900.00;;;45.88;13.28
16613;BME280;8419;52.358;9.752;2022-07-29T14:12:20;100904.00;;;47.20;12.46
16613;BME280;8419;52.358;9.752;2022-07-29T14:15:07;100903.00;;;47.99;11.90
16613;BME280;8419;52.358;9.752;2022-07-29T14:17:52;100898.00;;;48.06;11.75
16613;BME280;8419;52.358;9.752;2022-07-29T14:20:38;100901.00;;;47.19;12.21
16613;BME280;8419;52.358;9.752;2022-07-29T14:23:23;100903.00;;;46.05;12.77
16613;BME280;8419;52.358;9.752;2022-07-29T14:26:09;100889.00;;;45.25;13.15
16613;BME280;8419;52.358;9.752;2022-07-29T14:28:55;100888.00;;;45.33;13.01
16613;BME280;8419;52.358;9.752;2022-07-29T14:31:40;100889.00;;;46.10;12.39
16613;BME280;8419;52.358;9.752;2022-07-29T14:34:25;100888.00;;;46.71;11.96
16613;BME280;8419;52.358;9.752;2022-07-29T14:37:11;100885.00;;;47.24;11.55
16613;BME280;8419;52.358;9.752;2022-07-29T14:39:56;100887.00;;;47.00;11.63
16613;BME280;8419;52.358;9.752;2022-07-29T14:42:44;100888.00;;;47.45;11.29
16613;BME280;8419;52.358;9.752;2022-07-29T14:45:29;100892.00;;;47.20;11.31
16613;BME280;8419;52.358;9.752;2022-07-29T14:48:15;100886.00;;;46.61;11.54
16613;BME280;8419;52.358;9.752;2022-07-29T14:51:00;100878.00;;;46.22;11.67
16613;BME280;8419;52.358;9.752;2022-07-29T14:53:45;100880.00;;;45.93;11.78